createdAt,value
2022-12-08T00:02:24.285Z,2.30
2022-12-08T00:05:10.777Z,2.30
2022-12-08T00:07:59.801Z,2.30
2022-12-08T00:10:48.467Z,2.30
2022-12-08T00:13:17.405Z,2.30
2022-12-08T00:15:47.588Z,2.40
2022-12-08T00:18:16.415Z,2.50
2022-12-08T00:20:45.226Z,2.50
2022-12-08T00:23:13.994Z,2.60
2022-12-08T00:25:42.755Z,2.70
2022-12-08T00:28:11.542Z,2.80
2022-12-08T00:30:41.470Z,2.90
2022-12-08T00:33:11.915Z,2.90
2022-12-08T00:35:43.237Z,3.00
2022-12-08T00:38:12.301Z,2.90
2022-12-08T00:40:45.662Z,2.90
2022-12-08T00:43:14.475Z,2.80
2022-12-08T00:45:44.089Z,2.80
2022-12-08T00:48:14.166Z,2.80
2022-12-08T00:50:42.846Z,2.70
2022-12-08T00:53:11.621Z,2.80
2022-12-08T00:55:40.359Z,2.70
2022-12-08T00:58:09.141Z,2.70
2022-12-08T01:00:37.980Z,2.60
2022-12-08T01:03:06.617Z,2.60
2022-12-08T01:05:36.805Z,2.70
2022-12-08T01:08:07.101Z,2.80
2022-12-08T01:10:36.904Z,2.80
2022-12-08T01:13:05.798Z,2.80
2022-12-08T01:15:34.940Z,2.80
2022-12-08T01:18:03.709Z,2.90
2022-12-08T01:20:32.376Z,2.90
2022-12-08T01:23:02.453Z,2.90
2022-12-08T01:25:31.135Z,3.00
2022-12-08T01:27:59.723Z,3.00
2022-12-08T01:30:28.720Z,3.00
2022-12-08T01:32:57.620Z,3.00
2022-12-08T01:35:26.928Z,3.00
2022-12-08T01:37:55.749Z,3.00
2022-12-08T01:40:26.065Z,3.10
2022-12-08T01:42:54.764Z,3.10
2022-12-08T01:45:26.608Z,3.10
2022-12-08T01:47:59.401Z,3.20
2022-12-08T01:50:29.622Z,3.20
2022-12-08T01:53:02.026Z,3.20
2022-12-08T01:55:36.628Z,3.20
2022-12-08T01:58:12.686Z,3.20
2022-12-08T02:00:41.760Z,3.30
2022-12-08T02:03:15.015Z,3.30
2022-12-08T02:05:43.825Z,3.20
2022-12-08T02:08:14.704Z,3.20
2022-12-08T02:10:45.097Z,3.20
2022-12-08T02:13:17.429Z,3.20
2022-12-08T02:15:58.459Z,3.30
2022-12-08T02:18:47.885Z,3.30
2022-12-08T02:21:29.643Z,3.40
2022-12-08T02:24:09.361Z,3.40
2022-12-08T02:27:20.845Z,3.40
2022-12-08T02:30:14.855Z,3.50
2022-12-08T02:33:10.611Z,3.50
2022-12-08T02:35:50.946Z,3.50
2022-12-08T02:38:27.217Z,3.50
2022-12-08T02:41:04.248Z,3.50
2022-12-08T02:43:38.570Z,3.50
2022-12-08T02:46:12.478Z,3.50
2022-12-08T02:48:45.026Z,3.50
2022-12-08T02:51:15.177Z,3.40
2022-12-08T02:53:44.488Z,3.40
2022-12-08T02:56:26.012Z,3.40
2022-12-08T02:59:21.910Z,3.40
2022-12-08T03:02:02.528Z,3.40
2022-12-08T03:04:42.584Z,3.30
2022-12-08T03:07:21.100Z,3.30
2022-12-08T03:09:53.997Z,3.30
2022-12-08T03:12:29.771Z,3.30
2022-12-08T03:15:03.797Z,3.30
2022-12-08T03:17:33.251Z,3.30
2022-12-08T03:20:05.518Z,3.30
2022-12-08T03:22:35.938Z,3.30
2022-12-08T03:25:05.001Z,3.30
2022-12-08T03:27:33.978Z,3.40
2022-12-08T03:30:03.790Z,3.40
2022-12-08T03:32:47.761Z,3.40
2022-12-08T03:35:21.668Z,3.40
2022-12-08T03:37:51.972Z,3.40
2022-12-08T03:40:22.148Z,3.40
2022-12-08T03:42:50.878Z,3.40
2022-12-08T03:45:19.595Z,3.30
2022-12-08T03:47:48.424Z,3.30
2022-12-08T03:50:17.229Z,3.40
2022-12-08T03:52:45.916Z,3.40
2022-12-08T03:55:16.569Z,3.40
2022-12-08T03:57:45.337Z,3.40
2022-12-08T04:00:17.382Z,3.40
2022-12-08T04:02:46.081Z,3.50
2022-12-08T04:05:14.935Z,3.50
2022-12-08T04:07:44.034Z,3.50
2022-12-08T04:10:12.870Z,3.50
2022-12-08T04:12:42.871Z,3.50
2022-12-08T04:15:12.566Z,3.60
2022-12-08T04:17:41.291Z,3.60
2022-12-08T04:20:10.631Z,3.60
2022-12-08T04:22:39.343Z,3.60
2022-12-08T04:25:08.848Z,3.60
2022-12-08T04:27:37.530Z,3.60
2022-12-08T04:30:09.382Z,3.60
2022-12-08T04:32:41.646Z,3.60
2022-12-08T04:35:13.076Z,3.60
2022-12-08T04:37:41.852Z,3.60
2022-12-08T04:40:11.490Z,3.60
2022-12-08T04:42:40.355Z,3.60
2022-12-08T04:45:11.200Z,3.60
2022-12-08T04:47:40.023Z,3.60
2022-12-08T04:50:09.706Z,3.60
2022-12-08T04:52:38.720Z,3.60
2022-12-08T04:55:08.091Z,3.60
2022-12-08T04:57:36.652Z,3.50
2022-12-08T05:00:07.221Z,3.50
2022-12-08T05:02:37.681Z,3.50
2022-12-08T05:05:07.277Z,3.60
2022-12-08T05:07:36.046Z,3.60
2022-12-08T05:10:05.593Z,3.50
2022-12-08T05:12:35.147Z,3.60
2022-12-08T05:15:04.069Z,3.60
2022-12-08T05:17:37.190Z,3.50
2022-12-08T05:20:07.305Z,3.60
2022-12-08T05:22:36.053Z,3.60
2022-12-08T05:25:05.028Z,3.50
2022-12-08T05:27:33.891Z,3.50
2022-12-08T05:30:03.110Z,3.50
2022-12-08T05:32:31.946Z,3.50
2022-12-08T05:35:02.055Z,3.50
2022-12-08T05:37:30.799Z,3.50
2022-12-08T05:39:59.492Z,3.50
2022-12-08T05:42:28.155Z,3.50
2022-12-08T05:44:56.864Z,3.50
2022-12-08T05:47:25.597Z,3.50
2022-12-08T05:49:54.701Z,3.50
2022-12-08T05:52:24.816Z,3.40
2022-12-08T05:54:56.087Z,3.50
2022-12-08T05:57:24.856Z,3.40
2022-12-08T05:59:53.861Z,3.40
2022-12-08T06:02:25.174Z,3.40
2022-12-08T06:04:54.314Z,3.40
2022-12-08T06:07:24.498Z,3.30
2022-12-08T06:09:53.182Z,3.40
2022-12-08T06:12:22.112Z,3.40
2022-12-08T06:14:51.158Z,3.30
2022-12-08T06:17:19.862Z,3.30
2022-12-08T06:19:48.618Z,3.30
2022-12-08T06:22:17.376Z,3.30
2022-12-08T06:24:47.662Z,3.20
2022-12-08T06:27:20.293Z,3.20
2022-12-08T06:29:48.981Z,3.20
2022-12-08T06:32:20.742Z,3.10
2022-12-08T06:34:51.769Z,3.10
2022-12-08T06:37:21.207Z,3.10
2022-12-08T06:39:51.945Z,3.10
2022-12-08T06:42:40.160Z,3.00
2022-12-08T06:45:09.971Z,3.00
2022-12-08T06:47:38.840Z,3.00
2022-12-08T06:50:08.992Z,2.90
2022-12-08T06:52:53.040Z,3.00
2022-12-08T06:55:59.417Z,2.90
2022-12-08T06:58:17.633Z,2.90
2022-12-08T07:00:46.645Z,2.90
2022-12-08T07:03:15.712Z,2.90
2022-12-08T07:05:44.377Z,2.80
2022-12-08T07:08:13.102Z,2.80
2022-12-08T07:10:43.305Z,2.80
2022-12-08T07:13:11.866Z,2.80
2022-12-08T07:15:40.496Z,2.80
2022-12-08T07:18:09.149Z,2.80
2022-12-08T07:20:37.830Z,2.80
2022-12-08T07:23:06.435Z,2.80
2022-12-08T07:25:35.039Z,2.80
2022-12-08T07:28:09.457Z,2.80
2022-12-08T07:30:38.382Z,2.80
2022-12-08T07:33:07.028Z,2.90
2022-12-08T07:35:35.639Z,2.80
2022-12-08T07:38:04.426Z,2.90
2022-12-08T07:40:32.983Z,2.90
2022-12-08T07:43:01.562Z,2.90
2022-12-08T07:45:32.041Z,2.90
2022-12-08T07:48:00.957Z,2.90
2022-12-08T07:50:29.615Z,2.90
2022-12-08T07:52:58.210Z,2.90
2022-12-08T07:55:26.953Z,2.90
2022-12-08T07:57:55.620Z,3.00
2022-12-08T08:00:25.782Z,3.00
2022-12-08T08:02:56.009Z,3.00
2022-12-08T08:05:24.678Z,3.00
2022-12-08T08:07:53.561Z,3.00
2022-12-08T08:10:22.432Z,3.00
2022-12-08T08:12:51.004Z,3.00
2022-12-08T08:15:21.393Z,3.00
2022-12-08T08:17:52.353Z,3.00
2022-12-08T08:20:22.902Z,3.00
2022-12-08T08:22:52.905Z,3.10
2022-12-08T08:25:23.648Z,3.10
2022-12-08T08:27:52.596Z,3.10
2022-12-08T08:30:21.497Z,3.10
2022-12-08T08:32:50.582Z,3.10
2022-12-08T08:35:19.276Z,3.10
2022-12-08T08:37:49.692Z,3.10
2022-12-08T08:40:18.990Z,3.20
2022-12-08T08:42:47.594Z,3.20
2022-12-08T08:45:16.295Z,3.20
2022-12-08T08:47:44.860Z,3.20
2022-12-08T08:50:13.836Z,3.20
2022-12-08T08:52:42.602Z,3.20
2022-12-08T08:55:12.651Z,3.20
2022-12-08T08:57:41.470Z,3.30
2022-12-08T09:00:11.356Z,3.30
2022-12-08T09:02:39.997Z,3.30
2022-12-08T09:05:09.370Z,3.30
2022-12-08T09:07:38.059Z,3.40
2022-12-08T09:10:08.250Z,3.40
2022-12-08T09:12:38.717Z,3.40
2022-12-08T09:15:08.435Z,3.40
2022-12-08T09:17:37.099Z,3.40
2022-12-08T09:20:07.095Z,3.40
2022-12-08T09:22:35.890Z,3.40
2022-12-08T09:25:04.547Z,3.40
2022-12-08T09:27:34.026Z,3.40
2022-12-08T09:30:04.181Z,3.50
2022-12-08T09:32:33.000Z,3.50
2022-12-08T09:35:01.593Z,3.50
2022-12-08T09:37:30.139Z,3.50
2022-12-08T09:39:58.755Z,3.50
2022-12-08T09:42:34.861Z,3.50
2022-12-08T09:45:07.672Z,3.50
2022-12-08T09:47:41.205Z,3.50
2022-12-08T09:50:16.779Z,3.60
2022-12-08T09:52:49.789Z,3.60
2022-12-08T09:55:24.778Z,3.70
2022-12-08T09:58:01.956Z,3.70
2022-12-08T10:00:32.155Z,3.70
2022-12-08T10:03:01.162Z,3.70
2022-12-08T10:05:31.235Z,3.80
2022-12-08T10:08:09.438Z,3.70
2022-12-08T10:10:43.155Z,3.70
2022-12-08T10:13:20.342Z,3.70
2022-12-08T10:16:01.365Z,3.70
2022-12-08T10:18:32.987Z,3.70
2022-12-08T10:21:14.567Z,3.70
2022-12-08T10:23:45.826Z,3.80
2022-12-08T10:26:16.189Z,3.70
2022-12-08T10:28:45.755Z,3.70
2022-12-08T10:31:18.857Z,3.70
2022-12-08T10:33:49.352Z,3.70
2022-12-08T10:36:18.032Z,3.70
2022-12-08T10:38:47.189Z,3.80
2022-12-08T10:41:18.179Z,3.80
2022-12-08T10:43:50.592Z,3.80
2022-12-08T10:46:22.227Z,3.80
2022-12-08T10:48:53.267Z,3.80
2022-12-08T10:51:29.114Z,3.80
2022-12-08T10:53:58.119Z,3.80
2022-12-08T10:56:29.558Z,3.80
2022-12-08T10:59:15.222Z,3.90
2022-12-08T11:01:49.369Z,3.90
2022-12-08T11:04:19.968Z,3.90
2022-12-08T11:06:50.133Z,4.00
2022-12-08T11:09:37.936Z,4.00
2022-12-08T11:12:13.785Z,4.10
2022-12-08T11:14:50.498Z,4.10
2022-12-08T11:17:27.799Z,4.10
2022-12-08T11:20:00.423Z,4.20
2022-12-08T11:22:32.263Z,4.20
2022-12-08T11:25:03.505Z,4.20
2022-12-08T11:27:34.956Z,4.20
2022-12-08T11:30:08.439Z,4.20
2022-12-08T11:32:43.140Z,4.20
2022-12-08T11:35:20.671Z,4.20
2022-12-08T11:37:49.741Z,4.20
2022-12-08T11:40:24.504Z,4.20
2022-12-08T11:43:02.112Z,4.20
2022-12-08T11:45:35.970Z,4.20
2022-12-08T11:48:15.657Z,4.30
2022-12-08T11:50:49.265Z,4.20
2022-12-08T11:53:26.606Z,4.20
2022-12-08T11:55:58.753Z,4.30
2022-12-08T11:58:35.961Z,4.30
2022-12-08T12:01:04.534Z,4.30
2022-12-08T12:03:40.561Z,4.20
2022-12-08T12:06:53.312Z,4.30
2022-12-08T12:09:25.224Z,4.30
2022-12-08T12:12:16.634Z,4.30
2022-12-08T12:15:17.737Z,4.30
2022-12-08T12:17:50.296Z,4.40
2022-12-08T12:20:28.039Z,4.40
2022-12-08T12:23:02.480Z,4.40
2022-12-08T12:25:31.150Z,4.40
2022-12-08T12:28:03.217Z,4.30
2022-12-08T12:30:52.740Z,4.30
2022-12-08T12:33:22.519Z,4.30
2022-12-08T12:35:53.440Z,4.30
2022-12-08T12:38:44.381Z,4.30
2022-12-08T12:41:14.754Z,4.30
2022-12-08T12:44:24.497Z,4.30
2022-12-08T12:47:00.123Z,4.20
2022-12-08T12:50:16.508Z,4.20
2022-12-08T12:52:49.653Z,4.20
2022-12-08T12:55:51.380Z,4.30
2022-12-08T12:58:42.746Z,4.30
2022-12-08T13:01:44.935Z,4.30
2022-12-08T13:04:16.284Z,4.20
2022-12-08T13:06:47.979Z,4.10
2022-12-08T13:09:29.165Z,4.10
2022-12-08T13:12:01.185Z,4.00
2022-12-08T13:14:32.943Z,4.00
2022-12-08T13:17:03.586Z,4.00
2022-12-08T13:19:36.681Z,4.00
2022-12-08T13:22:06.237Z,4.00
2022-12-08T13:24:36.154Z,3.90
2022-12-08T13:27:33.194Z,3.80
2022-12-08T13:30:50.072Z,3.80
2022-12-08T13:33:23.747Z,4.00
2022-12-08T13:36:19.787Z,4.20
2022-12-08T13:38:50.595Z,4.40
2022-12-08T13:41:22.988Z,4.60
2022-12-08T13:47:17.269Z,4.60
2022-12-08T13:58:31.771Z,4.00
2022-12-08T14:01:08.965Z,3.90
2022-12-08T14:04:04.687Z,3.90
2022-12-08T14:06:38.515Z,3.70
2022-12-08T14:09:12.964Z,3.60
2022-12-08T14:11:44.276Z,3.50
2022-12-08T14:14:32.690Z,3.40
2022-12-08T14:17:10.794Z,3.30
2022-12-08T14:19:39.421Z,3.30
2022-12-08T14:22:13.034Z,3.30
2022-12-08T14:24:51.405Z,3.20
2022-12-08T14:27:22.874Z,3.20
2022-12-08T14:29:53.317Z,3.10
2022-12-08T14:32:28.946Z,3.00
2022-12-08T14:35:00.954Z,3.10
2022-12-08T14:37:32.696Z,3.00
2022-12-08T14:40:07.474Z,3.00
2022-12-08T14:42:44.955Z,3.00
2022-12-08T14:45:15.362Z,3.00
2022-12-08T14:47:44.167Z,3.00
2022-12-08T14:50:38.663Z,3.00
2022-12-08T14:53:13.412Z,3.00
2022-12-08T14:55:45.877Z,3.00
2022-12-08T14:58:20.941Z,3.00
2022-12-08T15:00:52.238Z,3.00
2022-12-08T15:03:24.113Z,3.00
2022-12-08T15:05:54.001Z,3.00
2022-12-08T15:08:23.027Z,3.10
2022-12-08T15:11:25.825Z,3.10
2022-12-08T15:13:55.454Z,3.10
2022-12-08T15:16:29.725Z,3.10
2022-12-08T15:19:16.635Z,3.10
2022-12-08T15:21:47.084Z,2.90
2022-12-08T15:24:17.067Z,2.80
2022-12-08T15:26:48.859Z,2.60
2022-12-08T15:29:22.892Z,2.50
2022-12-08T15:31:52.749Z,2.40
2022-12-08T15:34:21.904Z,2.40
2022-12-08T15:36:52.098Z,2.30
2022-12-08T15:39:30.457Z,2.20
2022-12-08T15:42:01.465Z,2.20
2022-12-08T15:44:32.669Z,2.20
2022-12-08T15:47:01.794Z,2.10
2022-12-08T15:49:30.567Z,2.10
2022-12-08T15:52:10.617Z,2.10
2022-12-08T15:54:40.519Z,2.10
2022-12-08T15:57:35.899Z,2.10
2022-12-08T16:00:51.985Z,2.10
2022-12-08T16:09:14.078Z,2.20
2022-12-08T16:12:09.597Z,2.30
2022-12-08T16:17:30.669Z,2.30
2022-12-08T16:19:59.835Z,2.40
2022-12-08T16:22:54.207Z,2.30
2022-12-08T16:25:20.320Z,2.30
2022-12-08T16:28:01.464Z,2.30
2022-12-08T16:30:35.681Z,2.30
2022-12-08T16:33:04.409Z,2.30
2022-12-08T16:35:33.077Z,2.20
2022-12-08T16:38:01.678Z,2.20
2022-12-08T16:40:30.445Z,2.20
2022-12-08T16:42:58.036Z,2.10
2022-12-08T16:45:28.987Z,2.20
2022-12-08T16:48:00.565Z,2.10
2022-12-08T16:50:31.126Z,2.10
2022-12-08T16:53:01.415Z,2.20
2022-12-08T16:55:30.022Z,2.20
2022-12-08T16:57:58.920Z,2.20
2022-12-08T17:00:29.680Z,2.10
2022-12-08T17:02:59.725Z,2.10
2022-12-08T17:05:28.416Z,2.10
2022-12-08T17:07:57.650Z,2.10
2022-12-08T17:10:28.687Z,2.00
2022-12-08T17:12:58.056Z,2.00
2022-12-08T17:15:27.326Z,2.00
2022-12-08T17:17:56.125Z,2.00
2022-12-08T17:20:27.995Z,2.00
2022-12-08T17:22:57.519Z,2.00
2022-12-08T17:25:26.920Z,2.00
2022-12-08T17:27:56.351Z,2.00
2022-12-08T17:30:25.248Z,2.00
2022-12-08T17:32:54.486Z,1.90
2022-12-08T17:35:23.687Z,2.00
2022-12-08T17:37:57.047Z,1.90
2022-12-08T17:40:28.337Z,2.00
2022-12-08T17:42:57.431Z,2.00
2022-12-08T17:45:26.451Z,2.00
2022-12-08T17:47:55.737Z,1.90
2022-12-08T17:50:24.733Z,1.80
2022-12-08T17:52:55.268Z,1.80
2022-12-08T17:55:24.649Z,1.90
2022-12-08T17:57:53.603Z,1.90
2022-12-08T18:00:22.719Z,1.90
2022-12-08T18:02:51.846Z,1.90
2022-12-08T18:05:21.168Z,2.00
2022-12-08T18:07:50.210Z,2.00
2022-12-08T18:10:21.366Z,2.10
2022-12-08T18:12:50.116Z,2.10
2022-12-08T18:15:22.251Z,2.10
2022-12-08T18:17:56.165Z,2.20
2022-12-08T18:20:27.271Z,2.30
2022-12-08T18:22:58.077Z,2.30
2022-12-08T18:25:28.512Z,2.40
2022-12-08T18:27:57.527Z,2.40
2022-12-08T18:30:26.634Z,2.50
2022-12-08T18:32:57.593Z,2.50
2022-12-08T18:35:27.034Z,2.50
2022-12-08T18:37:56.302Z,2.60
2022-12-08T18:40:25.295Z,2.60
2022-12-08T18:42:57.849Z,2.70
2022-12-08T18:45:31.796Z,2.70
2022-12-08T18:48:00.909Z,2.70
2022-12-08T18:50:29.592Z,2.80
2022-12-08T18:52:58.318Z,2.80
2022-12-08T18:55:34.688Z,2.70
2022-12-08T18:58:05.233Z,2.70
2022-12-08T19:00:34.401Z,2.70
2022-12-08T19:03:04.013Z,2.80
2022-12-08T19:05:32.889Z,2.80
2022-12-08T19:08:01.876Z,2.80
2022-12-08T19:10:32.301Z,2.80
2022-12-08T19:13:01.197Z,2.80
2022-12-08T19:15:31.465Z,2.80
2022-12-08T19:18:03.297Z,2.80
2022-12-08T19:20:32.132Z,2.90
2022-12-08T19:23:00.788Z,2.90
2022-12-08T19:25:29.596Z,2.90
2022-12-08T19:27:58.342Z,2.80
2022-12-08T19:30:27.807Z,2.90
2022-12-08T19:32:57.980Z,2.90
2022-12-08T19:35:27.106Z,2.90
2022-12-08T19:38:14.663Z,2.90
2022-12-08T19:41:00.654Z,2.90
2022-12-08T19:43:46.803Z,2.90
2022-12-08T19:46:16.828Z,2.90
2022-12-08T19:48:47.077Z,2.90
2022-12-08T19:51:15.877Z,2.80
2022-12-08T19:53:47.764Z,2.90
2022-12-08T19:56:16.835Z,2.90
2022-12-08T19:58:47.726Z,2.90
2022-12-08T20:01:17.963Z,2.90
2022-12-08T20:03:48.116Z,2.90
2022-12-08T20:06:19.199Z,2.90
2022-12-08T20:08:50.781Z,2.90
2022-12-08T20:11:19.740Z,2.90
2022-12-08T20:13:48.769Z,3.00
2022-12-08T20:16:18.476Z,3.00
2022-12-08T20:18:48.804Z,3.00
2022-12-08T20:21:17.994Z,3.00
2022-12-08T20:23:49.692Z,3.00
2022-12-08T20:26:20.070Z,3.00
2022-12-08T20:28:48.869Z,3.00
2022-12-08T20:31:21.188Z,3.10
2022-12-08T20:33:51.622Z,3.00
2022-12-08T20:36:22.549Z,3.00
2022-12-08T20:38:53.444Z,3.00
2022-12-08T20:41:23.476Z,3.00
2022-12-08T20:43:53.018Z,3.00
2022-12-08T20:46:22.667Z,3.00
2022-12-08T20:48:52.837Z,2.90
2022-12-08T20:51:23.755Z,3.00
2022-12-08T20:53:58.376Z,3.00
2022-12-08T20:56:27.780Z,3.00
2022-12-08T20:58:58.955Z,3.00
2022-12-08T21:01:28.091Z,3.00
2022-12-08T21:03:58.724Z,3.00
2022-12-08T21:06:28.145Z,3.10
2022-12-08T21:08:57.516Z,3.00
2022-12-08T21:11:26.492Z,3.00
2022-12-08T21:13:55.502Z,3.00
2022-12-08T21:16:24.426Z,3.00
2022-12-08T21:18:53.580Z,3.00
2022-12-08T21:21:23.859Z,3.00
2022-12-08T21:23:52.642Z,3.00
2022-12-08T21:26:26.037Z,3.00
2022-12-08T21:28:55.919Z,3.00
2022-12-08T21:31:26.434Z,3.00
2022-12-08T21:33:56.077Z,3.00
2022-12-08T21:36:26.305Z,3.00
2022-12-08T21:38:55.971Z,3.10
2022-12-08T21:41:39.366Z,3.00
2022-12-08T21:44:09.574Z,3.10
2022-12-08T21:46:38.707Z,3.10
2022-12-08T21:49:08.052Z,3.00
2022-12-08T21:51:42.307Z,3.00
2022-12-08T21:54:18.421Z,3.00
2022-12-08T21:56:48.776Z,3.10
2022-12-08T21:59:18.167Z,3.10
2022-12-08T22:01:47.303Z,3.10
2022-12-08T22:04:18.868Z,3.10
2022-12-08T22:06:49.722Z,3.10
2022-12-08T22:09:19.013Z,3.10
2022-12-08T22:11:47.915Z,3.10
2022-12-08T22:14:16.779Z,3.10
2022-12-08T22:16:45.648Z,3.10
2022-12-08T22:19:16.672Z,3.10
2022-12-08T22:21:46.160Z,3.10
2022-12-08T22:24:16.428Z,3.10
2022-12-08T22:26:45.462Z,3.10
2022-12-08T22:29:14.472Z,3.10
2022-12-08T22:31:43.663Z,3.10
2022-12-08T22:34:12.761Z,3.10
2022-12-08T22:36:42.648Z,3.10
2022-12-08T22:39:12.878Z,3.10
2022-12-08T22:41:42.976Z,3.10
2022-12-08T22:44:12.575Z,3.10
2022-12-08T22:46:41.471Z,3.10
2022-12-08T22:49:12.213Z,3.10
2022-12-08T22:51:40.975Z,3.10
2022-12-08T22:54:11.657Z,3.10
2022-12-08T22:56:40.465Z,3.00
2022-12-08T22:59:10.628Z,3.00
2022-12-08T23:01:39.566Z,3.00
2022-12-08T23:04:12.663Z,3.00
2022-12-08T23:06:44.747Z,3.00
2022-12-08T23:09:15.527Z,3.00
2022-12-08T23:11:47.819Z,3.00
2022-12-08T23:14:18.303Z,3.00
2022-12-08T23:16:47.349Z,3.00
2022-12-08T23:19:16.149Z,3.10
2022-12-08T23:21:46.594Z,3.10
2022-12-08T23:24:15.424Z,3.00
2022-12-08T23:26:44.051Z,3.00
2022-12-08T23:29:12.853Z,3.00
2022-12-08T23:31:43.337Z,3.00
2022-12-08T23:34:12.251Z,2.90
2022-12-08T23:36:41.038Z,2.90
2022-12-08T23:39:11.952Z,2.90
2022-12-08T23:41:40.929Z,2.80
2022-12-08T23:44:12.000Z,2.80
2022-12-08T23:46:42.394Z,2.80
2022-12-08T23:49:11.568Z,2.80
2022-12-08T23:51:40.294Z,2.90
2022-12-08T23:54:09.317Z,2.90
2022-12-08T23:56:38.117Z,2.90
2022-12-08T23:59:07.020Z,2.90
